AAL1195 KMCO-KMIA
Flight info
| Callsign | AAL1195 |
|---|---|
| Flight time | 0h 40m |
| Altitude | 23000 |
| Route | DDANY3 DDANY CSTAL3 |
| Aircraft | B738/M-SDE2E3FGHIRWXY/LB1 |
Departure
| Time | 2026-04-22 23:34 |
|---|---|
| Airport | Orlando International Airport (KMCO) |
Arrival
| Time | 2026-04-23 00:15 |
|---|---|
| Airport | Miami International Airport (KMIA) |
| Time | Latitude | Longitude | Altitude | Speed | Heading |
|---|---|---|---|---|---|
| 2026-04-22 23:07 | 28.42873 | -81.31622 | 104 ft | 0 kts | 126° |
| 2026-04-22 23:24 | 28.42881 | -81.31634 | 104 ft | 2 kts | 126° |
| 2026-04-22 23:24 | 28.42890 | -81.31648 | 104 ft | 2 kts | 126° |
| 2026-04-22 23:25 | 28.42899 | -81.31662 | 104 ft | 2 kts | 143° |
| 2026-04-22 23:25 | 28.42912 | -81.31668 | 104 ft | 2 kts | 176° |
| 2026-04-22 23:25 | 28.42927 | -81.31665 | 104 ft | 2 kts | 208° |
| 2026-04-22 23:25 | 28.42939 | -81.31654 | 104 ft | 2 kts | 240° |
| 2026-04-22 23:26 | 28.42942 | -81.31646 | 104 ft | 1 kts | 258° |
| 2026-04-22 23:26 | 28.42943 | -81.31641 | 104 ft | 0 kts | 254° |
| 2026-04-22 23:28 | 28.42942 | -81.31643 | 104 ft | 1 kts | 254° |
| 2026-04-22 23:28 | 28.42939 | -81.31656 | 104 ft | 3 kts | 254° |
| 2026-04-22 23:28 | 28.42912 | -81.31698 | 104 ft | 10 kts | 207° |
| 2026-04-22 23:29 | 28.42819 | -81.31679 | 104 ft | 17 kts | 167° |
| 2026-04-22 23:29 | 28.42675 | -81.31643 | 104 ft | 24 kts | 167° |
| 2026-04-22 23:29 | 28.42500 | -81.31608 | 104 ft | 24 kts | 187° |
| 2026-04-22 23:29 | 28.42354 | -81.31667 | 104 ft | 20 kts | 182° |
| 2026-04-22 23:30 | 28.42265 | -81.31584 | 104 ft | 20 kts | 88° |
| 2026-04-22 23:30 | 28.42267 | -81.31415 | 104 ft | 22 kts | 91° |
| 2026-04-22 23:30 | 28.42265 | -81.31221 | 104 ft | 25 kts | 96° |
| 2026-04-22 23:30 | 28.42234 | -81.31012 | 104 ft | 28 kts | 93° |
| 2026-04-22 23:31 | 28.42245 | -81.30782 | 112 ft | 27 kts | 85° |
| 2026-04-22 23:31 | 28.42260 | -81.30585 | 120 ft | 21 kts | 85° |
| 2026-04-22 23:31 | 28.42270 | -81.30424 | 104 ft | 24 kts | 87° |
| 2026-04-22 23:31 | 28.42276 | -81.30231 | 104 ft | 25 kts | 89° |
| 2026-04-22 23:32 | 28.42277 | -81.30015 | 104 ft | 29 kts | 90° |
| 2026-04-22 23:32 | 28.42280 | -81.29785 | 104 ft | 26 kts | 88° |
| 2026-04-22 23:32 | 28.42395 | -81.29700 | 104 ft | 23 kts | 358° |
| 2026-04-22 23:32 | 28.42587 | -81.29703 | 103 ft | 32 kts | 359° |
| 2026-04-22 23:33 | 28.42847 | -81.29703 | 103 ft | 42 kts | 360° |
| 2026-04-22 23:33 | 28.43167 | -81.29707 | 104 ft | 46 kts | 0° |
| 2026-04-22 23:33 | 28.43456 | -81.29711 | 104 ft | 23 kts | 359° |
| 2026-04-22 23:33 | 28.43556 | -81.29648 | 103 ft | 17 kts | 84° |
| 2026-04-22 23:34 | 28.43475 | -81.29585 | 103 ft | 18 kts | 179° |
| 2026-04-22 23:34 | 28.43117 | -81.29582 | 104 ft | 91 kts | 179° |
| 2026-04-22 23:34 | 28.42224 | -81.29575 | 104 ft | 160 kts | 178° |
| 2026-04-22 23:34 | 28.41065 | -81.29603 | 829 ft | 163 kts | 178° |
| 2026-04-22 23:35 | 28.40007 | -81.29584 | 1711 ft | 155 kts | 165° |
| 2026-04-22 23:35 | 28.38932 | -81.29203 | 2134 ft | 168 kts | 147° |
| 2026-04-22 23:35 | 28.37920 | -81.28482 | 2630 ft | 182 kts | 145° |
| 2026-04-22 23:35 | 28.36755 | -81.27766 | 3137 ft | 200 kts | 151° |
| 2026-04-22 23:36 | 28.35451 | -81.27086 | 3693 ft | 215 kts | 153° |
| 2026-04-22 23:36 | 28.34137 | -81.26137 | 4211 ft | 232 kts | 135° |
| 2026-04-22 23:36 | 28.33152 | -81.24645 | 4800 ft | 248 kts | 112° |
| 2026-04-22 23:36 | 28.32682 | -81.22705 | 5428 ft | 263 kts | 101° |
| 2026-04-22 23:37 | 28.32362 | -81.20647 | 6246 ft | 271 kts | 100° |
| 2026-04-22 23:37 | 28.31999 | -81.18544 | 7130 ft | 275 kts | 102° |
| 2026-04-22 23:37 | 28.31586 | -81.16431 | 8003 ft | 280 kts | 103° |
| 2026-04-22 23:37 | 28.31138 | -81.14284 | 8849 ft | 284 kts | 104° |
| 2026-04-22 23:38 | 28.30675 | -81.12109 | 9729 ft | 286 kts | 104° |
| 2026-04-22 23:38 | 28.30210 | -81.09920 | 10411 ft | 296 kts | 104° |
| 2026-04-22 23:38 | 28.29711 | -81.07561 | 10863 ft | 314 kts | 104° |
| 2026-04-22 23:38 | 28.29191 | -81.05100 | 11333 ft | 331 kts | 103° |
| 2026-04-22 23:39 | 28.28647 | -81.02522 | 11752 ft | 348 kts | 103° |
| 2026-04-22 23:39 | 28.28072 | -80.99796 | 12157 ft | 366 kts | 103° |
| 2026-04-22 23:39 | 28.27463 | -80.96912 | 12558 ft | 383 kts | 103° |
| 2026-04-22 23:39 | 28.26827 | -80.93912 | 12901 ft | 400 kts | 103° |
| 2026-04-22 23:40 | 28.26174 | -80.90825 | 13491 ft | 408 kts | 103° |
| 2026-04-22 23:40 | 28.25507 | -80.87676 | 14196 ft | 412 kts | 103° |
| 2026-04-22 23:40 | 28.24836 | -80.84515 | 14826 ft | 419 kts | 104° |
| 2026-04-22 23:40 | 28.24149 | -80.81294 | 15466 ft | 424 kts | 104° |
| 2026-04-22 23:41 | 28.23448 | -80.78010 | 16082 ft | 431 kts | 104° |
| 2026-04-22 23:41 | 28.22644 | -80.74733 | 16705 ft | 436 kts | 109° |
| 2026-04-22 23:41 | 28.21413 | -80.71585 | 17332 ft | 440 kts | 122° |
| 2026-04-22 23:41 | 28.19518 | -80.68911 | 17934 ft | 441 kts | 138° |
| 2026-04-22 23:42 | 28.17063 | -80.66834 | 18558 ft | 441 kts | 152° |
| 2026-04-22 23:42 | 28.14288 | -80.65305 | 19152 ft | 443 kts | 160° |
| 2026-04-22 23:42 | 28.11390 | -80.64135 | 19750 ft | 445 kts | 166° |
| 2026-04-22 23:42 | 28.08406 | -80.63158 | 20338 ft | 448 kts | 168° |
| 2026-04-22 23:43 | 28.05373 | -80.62270 | 20901 ft | 452 kts | 169° |
| 2026-04-22 23:43 | 28.02287 | -80.61404 | 21444 ft | 457 kts | 169° |
| 2026-04-22 23:43 | 27.99196 | -80.60538 | 21976 ft | 461 kts | 169° |
| 2026-04-22 23:43 | 27.96068 | -80.59656 | 22502 ft | 465 kts | 169° |
| 2026-04-22 23:44 | 27.92904 | -80.58751 | 22955 ft | 471 kts | 169° |
| 2026-04-22 23:44 | 27.89704 | -80.57826 | 23168 ft | 476 kts | 169° |
| 2026-04-22 23:44 | 27.86485 | -80.56883 | 23180 ft | 472 kts | 169° |
| 2026-04-22 23:44 | 27.83357 | -80.55958 | 23171 ft | 471 kts | 169° |
| 2026-04-22 23:45 | 27.80219 | -80.55026 | 23176 ft | 471 kts | 169° |
| 2026-04-22 23:45 | 27.77040 | -80.54079 | 23185 ft | 470 kts | 169° |
| 2026-04-22 23:45 | 27.73867 | -80.53135 | 23180 ft | 472 kts | 169° |
| 2026-04-22 23:45 | 27.70815 | -80.52226 | 23180 ft | 471 kts | 169° |
| 2026-04-22 23:46 | 27.67614 | -80.51273 | 23179 ft | 471 kts | 169° |
| 2026-04-22 23:46 | 27.64476 | -80.50319 | 23182 ft | 473 kts | 167° |
| 2026-04-22 23:46 | 27.61312 | -80.49210 | 23180 ft | 473 kts | 165° |
| 2026-04-22 23:46 | 27.58216 | -80.48001 | 23179 ft | 474 kts | 164° |
| 2026-04-22 23:47 | 27.55080 | -80.46716 | 23178 ft | 475 kts | 163° |
| 2026-04-22 23:47 | 27.51974 | -80.45427 | 23176 ft | 474 kts | 163° |
| 2026-04-22 23:47 | 27.48879 | -80.44146 | 23175 ft | 475 kts | 163° |
| 2026-04-22 23:47 | 27.45788 | -80.42879 | 23177 ft | 473 kts | 163° |
| 2026-04-22 23:48 | 27.42668 | -80.41614 | 23171 ft | 473 kts | 163° |
| 2026-04-22 23:48 | 27.39593 | -80.40378 | 23174 ft | 473 kts | 164° |
| 2026-04-22 23:48 | 27.36453 | -80.39124 | 23171 ft | 474 kts | 164° |
| 2026-04-22 23:48 | 27.33353 | -80.37894 | 23169 ft | 474 kts | 164° |
| 2026-04-22 23:49 | 27.30247 | -80.36665 | 23167 ft | 475 kts | 164° |
| 2026-04-22 23:49 | 27.27099 | -80.35422 | 23164 ft | 475 kts | 164° |
| 2026-04-22 23:49 | 27.23969 | -80.34187 | 23163 ft | 474 kts | 165° |
| 2026-04-22 23:49 | 27.20984 | -80.33012 | 23162 ft | 473 kts | 165° |
| 2026-04-22 23:50 | 27.17874 | -80.31792 | 23164 ft | 473 kts | 165° |
| 2026-04-22 23:50 | 27.14773 | -80.30585 | 23164 ft | 471 kts | 165° |
| 2026-04-22 23:50 | 27.11687 | -80.29387 | 23160 ft | 472 kts | 165° |
| 2026-04-22 23:50 | 27.08595 | -80.28190 | 23164 ft | 472 kts | 165° |
| 2026-04-22 23:51 | 27.05458 | -80.26975 | 23160 ft | 470 kts | 165° |
| 2026-04-22 23:51 | 27.02386 | -80.25786 | 23158 ft | 470 kts | 165° |
| 2026-04-22 23:51 | 26.99303 | -80.24593 | 23158 ft | 471 kts | 165° |
| 2026-04-22 23:51 | 26.96210 | -80.23397 | 23158 ft | 471 kts | 165° |
| 2026-04-22 23:52 | 26.93099 | -80.22194 | 23157 ft | 471 kts | 165° |
| 2026-04-22 23:52 | 26.89964 | -80.20983 | 23157 ft | 474 kts | 165° |
| 2026-04-22 23:52 | 26.86855 | -80.19782 | 23156 ft | 472 kts | 165° |
| 2026-04-22 23:52 | 26.83722 | -80.18581 | 23152 ft | 472 kts | 165° |
| 2026-04-22 23:53 | 26.80590 | -80.17405 | 23151 ft | 473 kts | 165° |
| 2026-04-22 23:53 | 26.77476 | -80.16250 | 23150 ft | 471 kts | 166° |
| 2026-04-22 23:53 | 26.74382 | -80.15105 | 23151 ft | 454 kts | 165° |
| 2026-04-22 23:53 | 26.71445 | -80.14016 | 23155 ft | 435 kts | 166° |
| 2026-04-22 23:54 | 26.68614 | -80.13045 | 23153 ft | 416 kts | 169° |
| 2026-04-22 23:54 | 26.65859 | -80.12247 | 23119 ft | 408 kts | 171° |
| 2026-04-22 23:54 | 26.63105 | -80.11527 | 22775 ft | 403 kts | 172° |
| 2026-04-22 23:54 | 26.60349 | -80.10833 | 22087 ft | 405 kts | 172° |
| 2026-04-22 23:55 | 26.57626 | -80.10164 | 21354 ft | 406 kts | 172° |
| 2026-04-22 23:55 | 26.54840 | -80.09499 | 20609 ft | 407 kts | 172° |
| 2026-04-22 23:55 | 26.52071 | -80.08843 | 19870 ft | 408 kts | 172° |
| 2026-04-22 23:55 | 26.49294 | -80.08178 | 19131 ft | 407 kts | 171° |
| 2026-04-22 23:56 | 26.46527 | -80.07509 | 18395 ft | 406 kts | 171° |
| 2026-04-22 23:56 | 26.43792 | -80.06869 | 17666 ft | 404 kts | 172° |
| 2026-04-22 23:56 | 26.41032 | -80.06274 | 16931 ft | 402 kts | 172° |
| 2026-04-22 23:56 | 26.38283 | -80.05692 | 16194 ft | 400 kts | 171° |
| 2026-04-22 23:57 | 26.35575 | -80.05035 | 15466 ft | 399 kts | 169° |
| 2026-04-22 23:57 | 26.32901 | -80.04313 | 14738 ft | 397 kts | 168° |
| 2026-04-22 23:57 | 26.30210 | -80.03555 | 14003 ft | 394 kts | 167° |
| 2026-04-22 23:57 | 26.27561 | -80.02846 | 13277 ft | 391 kts | 169° |
| 2026-04-22 23:58 | 26.24903 | -80.02444 | 12554 ft | 386 kts | 180° |
| 2026-04-22 23:58 | 26.22228 | -80.02670 | 11823 ft | 381 kts | 190° |
| 2026-04-22 23:58 | 26.19667 | -80.03210 | 11245 ft | 373 kts | 193° |
| 2026-04-22 23:58 | 26.17177 | -80.03847 | 11022 ft | 356 kts | 195° |
| 2026-04-22 23:59 | 26.14825 | -80.04464 | 10989 ft | 335 kts | 194° |
| 2026-04-22 23:59 | 26.12619 | -80.05029 | 10986 ft | 315 kts | 194° |
| 2026-04-22 23:59 | 26.10516 | -80.05547 | 10989 ft | 301 kts | 194° |
| 2026-04-22 23:59 | 26.08470 | -80.06035 | 10992 ft | 301 kts | 193° |
| 2026-04-23 00:00 | 26.04369 | -80.07035 | 10987 ft | 301 kts | 195° |
| 2026-04-23 00:00 | 26.02334 | -80.07572 | 10985 ft | 302 kts | 195° |
| 2026-04-23 00:00 | 26.00301 | -80.08112 | 10986 ft | 300 kts | 195° |
| 2026-04-23 00:01 | 25.98260 | -80.08649 | 10977 ft | 300 kts | 195° |
| 2026-04-23 00:01 | 25.96244 | -80.09176 | 10795 ft | 294 kts | 195° |
| 2026-04-23 00:01 | 25.94260 | -80.09693 | 10463 ft | 292 kts | 195° |
| 2026-04-23 00:01 | 25.92342 | -80.10429 | 10080 ft | 290 kts | 209° |
| 2026-04-23 00:02 | 25.90761 | -80.11771 | 9706 ft | 286 kts | 227° |
| 2026-04-23 00:02 | 25.89430 | -80.13447 | 9319 ft | 286 kts | 232° |
| 2026-04-23 00:02 | 25.88368 | -80.15292 | 8939 ft | 283 kts | 249° |
| 2026-04-23 00:02 | 25.87887 | -80.17406 | 8567 ft | 281 kts | 265° |
| 2026-04-23 00:03 | 25.87778 | -80.19556 | 8187 ft | 280 kts | 269° |
| 2026-04-23 00:03 | 25.87743 | -80.21696 | 7816 ft | 280 kts | 269° |
| 2026-04-23 00:03 | 25.87703 | -80.23859 | 7435 ft | 280 kts | 269° |
| 2026-04-23 00:03 | 25.87648 | -80.26034 | 7047 ft | 281 kts | 269° |
| 2026-04-23 00:04 | 25.87631 | -80.28203 | 6665 ft | 281 kts | 274° |
| 2026-04-23 00:04 | 25.88015 | -80.30310 | 6292 ft | 279 kts | 293° |
| 2026-04-23 00:04 | 25.88894 | -80.32229 | 5922 ft | 278 kts | 302° |
| 2026-04-23 00:04 | 25.89885 | -80.34058 | 5542 ft | 279 kts | 302° |
| 2026-04-23 00:05 | 25.90880 | -80.35927 | 5152 ft | 280 kts | 302° |
| 2026-04-23 00:05 | 25.91834 | -80.37806 | 4776 ft | 280 kts | 301° |
| 2026-04-23 00:05 | 25.92764 | -80.39695 | 4402 ft | 281 kts | 300° |
| 2026-04-23 00:05 | 25.93597 | -80.41679 | 4046 ft | 281 kts | 290° |
| 2026-04-23 00:06 | 25.93916 | -80.43749 | 3991 ft | 269 kts | 272° |
| 2026-04-23 00:06 | 25.93860 | -80.45794 | 3998 ft | 261 kts | 267° |
| 2026-04-23 00:06 | 25.93744 | -80.47818 | 3995 ft | 262 kts | 267° |
| 2026-04-23 00:06 | 25.93630 | -80.49797 | 3987 ft | 249 kts | 267° |
| 2026-04-23 00:07 | 25.93673 | -80.51646 | 3992 ft | 240 kts | 284° |
| 2026-04-23 00:07 | 25.94223 | -80.53392 | 3997 ft | 240 kts | 299° |
| 2026-04-23 00:07 | 25.95035 | -80.55009 | 3918 ft | 234 kts | 303° |
| 2026-04-23 00:07 | 25.95611 | -80.56703 | 3565 ft | 242 kts | 277° |
| 2026-04-23 00:08 | 25.95369 | -80.58532 | 3253 ft | 242 kts | 243° |
| 2026-04-23 00:08 | 25.94262 | -80.59859 | 3027 ft | 231 kts | 201° |
| 2026-04-23 00:08 | 25.92757 | -80.60065 | 3002 ft | 217 kts | 160° |
| 2026-04-23 00:08 | 25.91565 | -80.59147 | 2987 ft | 206 kts | 120° |
| 2026-04-23 00:09 | 25.90965 | -80.57719 | 2984 ft | 206 kts | 108° |
| 2026-04-23 00:09 | 25.90476 | -80.56229 | 2984 ft | 202 kts | 108° |
| 2026-04-23 00:09 | 25.90001 | -80.54797 | 2988 ft | 193 kts | 108° |
| 2026-04-23 00:09 | 25.89534 | -80.53388 | 2992 ft | 195 kts | 108° |
| 2026-04-23 00:10 | 25.89060 | -80.51966 | 2991 ft | 196 kts | 108° |
| 2026-04-23 00:10 | 25.88593 | -80.50569 | 2990 ft | 193 kts | 108° |
| 2026-04-23 00:10 | 25.88156 | -80.49156 | 2992 ft | 194 kts | 105° |
| 2026-04-23 00:10 | 25.87760 | -80.47734 | 2985 ft | 189 kts | 105° |
| 2026-04-23 00:11 | 25.87467 | -80.46334 | 2993 ft | 183 kts | 96° |
| 2026-04-23 00:11 | 25.87229 | -80.44949 | 2919 ft | 187 kts | 105° |
| 2026-04-23 00:11 | 25.86712 | -80.43612 | 2685 ft | 188 kts | 114° |
| 2026-04-23 00:11 | 25.86105 | -80.42336 | 2437 ft | 187 kts | 115° |
| 2026-04-23 00:12 | 25.85486 | -80.41083 | 2202 ft | 181 kts | 116° |
| 2026-04-23 00:12 | 25.84870 | -80.39864 | 1940 ft | 177 kts | 116° |
| 2026-04-23 00:12 | 25.84286 | -80.38720 | 1718 ft | 163 kts | 116° |
| 2026-04-23 00:12 | 25.83754 | -80.37678 | 1495 ft | 149 kts | 115° |
| 2026-04-23 00:13 | 25.83264 | -80.36722 | 1329 ft | 142 kts | 116° |
| 2026-04-23 00:13 | 25.82775 | -80.35767 | 1131 ft | 141 kts | 116° |
| 2026-04-23 00:13 | 25.82290 | -80.34820 | 945 ft | 139 kts | 116° |
| 2026-04-23 00:13 | 25.81818 | -80.33899 | 771 ft | 137 kts | 116° |
| 2026-04-23 00:14 | 25.81329 | -80.32960 | 570 ft | 143 kts | 117° |
| 2026-04-23 00:14 | 25.80830 | -80.31995 | 434 ft | 145 kts | 117° |
| 2026-04-23 00:14 | 25.80334 | -80.31001 | 221 ft | 148 kts | 117° |
| 2026-04-23 00:14 | 25.79822 | -80.30007 | 30 ft | 147 kts | 118° |
| 2026-04-23 00:15 | 25.79368 | -80.29125 | 13 ft | 103 kts | 121° |
| 2026-04-23 00:15 | 25.79129 | -80.28661 | 13 ft | 42 kts | 116° |
| 2026-04-23 00:15 | 25.79121 | -80.28458 | 13 ft | 15 kts | 46° |
| 2026-04-23 00:15 | 25.79187 | -80.28523 | 13 ft | 13 kts | 298° |
| 2026-04-23 00:16 | 25.79243 | -80.28599 | 13 ft | 12 kts | 349° |
| 2026-04-23 00:16 | 25.79314 | -80.28597 | 13 ft | 10 kts | 308° |
| 2026-04-23 00:16 | 25.79350 | -80.28660 | 13 ft | 8 kts | 300° |
| 2026-04-23 00:16 | 25.79378 | -80.28716 | 13 ft | 7 kts | 299° |
| 2026-04-23 00:17 | 25.79412 | -80.28779 | 13 ft | 12 kts | 313° |
| 2026-04-23 00:17 | 25.79496 | -80.28800 | 13 ft | 12 kts | 358° |
| 2026-04-23 00:17 | 25.79577 | -80.28803 | 13 ft | 10 kts | 358° |
| 2026-04-23 00:17 | 25.79641 | -80.28806 | 13 ft | 8 kts | 358° |
| 2026-04-23 00:18 | 25.79694 | -80.28809 | 13 ft | 7 kts | 358° |
| 2026-04-23 00:18 | 25.79756 | -80.28812 | 13 ft | 10 kts | 357° |
| 2026-04-23 00:18 | 25.79842 | -80.28816 | 13 ft | 13 kts | 358° |
| 2026-04-23 00:18 | 25.79925 | -80.28802 | 13 ft | 12 kts | 51° |
| 2026-04-23 00:19 | 25.79938 | -80.28695 | 13 ft | 16 kts | 88° |
| 2026-04-23 00:19 | 25.79943 | -80.28555 | 13 ft | 19 kts | 88° |
| 2026-04-23 00:19 | 25.79949 | -80.28396 | 13 ft | 21 kts | 88° |
| 2026-04-23 00:19 | 25.79956 | -80.28234 | 13 ft | 20 kts | 87° |
| 2026-04-23 00:20 | 25.79963 | -80.28087 | 13 ft | 18 kts | 88° |
| 2026-04-23 00:20 | 25.79968 | -80.27947 | 13 ft | 17 kts | 89° |
| 2026-04-23 00:20 | 25.79927 | -80.27892 | 13 ft | 8 kts | 173° |
| 2026-04-23 00:20 | 25.79883 | -80.27918 | 13 ft | 7 kts | 251° |
| 2026-04-23 00:21 | 25.79858 | -80.27948 | 13 ft | 5 kts | 186° |
| 2026-04-23 00:21 | 25.79823 | -80.27947 | 13 ft | 4 kts | 176° |
| 2026-04-23 00:21 | 25.79791 | -80.27945 | 13 ft | 5 kts | 178° |
| 2026-04-23 00:21 | 25.79780 | -80.27945 | 13 ft | 0 kts | 178° |